Pine Ridge, Arkansas
Current Conditions -  °F | °C
As of 8:01 AM on Saturday 22 Nov 2014 (Local Time) from KMWT Reporting Station
Overcast Overcast  
Wind Chill: 56°   Ceiling: 3300
Heat Index: 56°   Visibility: 10mi
Dew Point: 51°   Wind: 5mph
Humidity: 84%   Direction: 140°SE
Pressure: 30.14"   Gusts: NA
Location:  34.6186°N, 93.7769°W
Report Text: KMWT 221401Z AUTO 14004KT 10SM SCT014 OVC033 13/11 A3014 RMK AO2 T01330106
Loading
Personal Weather Stations






























Interactive Weather Map New forecast layout! Learn more

10-Day Weather Forecast

Advertisements
Track Severe Weather on mobile